Time;durP1;ratioP1;P1;durP2;ratioP2;P2;SDS_P1;SDS_P2;PMS_P1;PMS_P2;Temp;Humidity;BMP_temperature;BMP_pressure;BME280_temperature;BME280_humidity;BME280_pressure;Samples;Min_cycle;Max_cycle;Signal;HPM_P1;HPM_P2
2022/06/25 00:01:22;;;;;;;;;;;29.90;48.10;;;;;;5032601;28;19928;-76
2022/06/25 00:03:47;;;;;;;;;;;29.90;48.10;;;;;;5015759;28;20292;-76
2022/06/25 00:06:13;;;;;;;;;;;29.90;48.10;;;;;;5015815;28;19967;-76
2022/06/25 00:08:38;;;;;;;;;;;29.90;48.20;;;;;;5006945;28;20412;-77
2022/06/25 00:11:04;;;;;;;;;;;29.90;48.20;;;;;;5012938;28;19949;-77
2022/06/25 00:13:30;;;;;;;;;;;29.90;48.20;;;;;;5012625;28;19910;-76
2022/06/25 00:15:55;;;;;;;;;;;29.90;48.10;;;;;;5012685;28;19963;-77
2022/06/25 00:18:21;;;;;;;;;;;29.80;48.10;;;;;;5012519;28;20305;-76
2022/06/25 00:20:46;;;;;;;;;;;29.90;48.20;;;;;;4996272;28;19992;-76
2022/06/25 00:23:12;;;;;;;;;;;29.90;48.20;;;;;;5012491;28;19910;-76
2022/06/25 00:25:38;;;;;;;;;;;29.90;48.20;;;;;;5012396;28;20385;-77
2022/06/25 00:28:03;;;;;;;;;;;29.90;48.20;;;;;;4996021;28;19921;-77
2022/06/25 00:30:29;;;;;;;;;;;29.80;48.10;;;;;;5013900;28;19964;-77
2022/06/25 00:32:54;;;;;;;;;;;29.80;48.10;;;;;;5012451;28;20428;-77
2022/06/25 00:35:20;;;;;;;;;;;29.80;48.20;;;;;;5013634;28;20381;-77
2022/06/25 00:37:45;;;;;;;;;;;29.80;48.20;;;;;;5016949;28;20320;-76
2022/06/25 00:40:11;;;;;;;;;;;29.80;48.20;;;;;;5016376;28;19914;-76
2022/06/25 00:42:36;;;;;;;;;;;29.80;48.30;;;;;;5016451;28;19990;-76
2022/06/25 00:45:02;;;;;;;;;;;29.80;48.20;;;;;;5017382;28;20281;-75
2022/06/25 00:47:27;;;;;;;;;;;29.80;48.20;;;;;;4999737;28;19964;-76
2022/06/25 00:49:53;;;;;;;;;;;29.80;48.30;;;;;;5016017;28;19948;-76
2022/06/25 00:52:19;;;;;;;;;;;29.70;48.30;;;;;;5015815;28;20361;-76
2022/06/25 00:54:45;;;;;;;;;;;29.80;48.30;;;;;;4999941;28;19910;-76
2022/06/25 00:57:11;;;;;;;;;;;29.80;48.40;;;;;;5016144;28;19914;-76
2022/06/25 00:59:38;;;;;;;;;;;29.70;48.20;;;;;;5015627;28;19920;-76
2022/06/25 01:02:04;;;;;;;;;;;29.80;48.30;;;;;;5015769;28;19932;-75
2022/06/25 01:04:29;;;;;;;;;;;29.70;48.30;;;;;;4999317;28;19922;-76
2022/06/25 01:06:55;;;;;;;;;;;29.70;48.30;;;;;;4999462;28;20338;-77
2022/06/25 01:09:20;;;;;;;;;;;29.80;48.40;;;;;;5016042;28;19910;-76
2022/06/25 01:11:46;;;;;;;;;;;29.70;48.40;;;;;;5016013;28;19916;-76
2022/06/25 01:14:11;;;;;;;;;;;29.70;48.40;;;;;;5016812;28;19915;-76
2022/06/25 01:16:37;;;;;;;;;;;29.60;48.30;;;;;;5015991;28;19914;-75
2022/06/25 01:19:07;;;;;;;;;;;29.60;48.30;;;;;;5015804;28;19932;-77
2022/06/25 01:21:32;;;;;;;;;;;29.60;48.40;;;;;;4999159;28;19914;-76
2022/06/25 01:23:58;;;;;;;;;;;29.60;48.30;;;;;;5015424;28;20388;-76
2022/06/25 01:26:24;;;;;;;;;;;29.60;48.40;;;;;;5015847;28;20316;-76
2022/06/25 01:28:49;;;;;;;;;;;29.60;48.30;;;;;;5016834;28;19917;-77
2022/06/25 01:31:15;;;;;;;;;;;29.60;48.40;;;;;;5015731;28;19916;-76
2022/06/25 01:33:40;;;;;;;;;;;29.60;48.40;;;;;;5015904;28;19948;-77
2022/06/25 01:36:06;;;;;;;;;;;29.60;48.40;;;;;;5015539;28;19909;-77
2022/06/25 01:38:31;;;;;;;;;;;29.70;48.50;;;;;;5015496;28;19919;-76
2022/06/25 01:40:57;;;;;;;;;;;29.70;48.50;;;;;;5016309;28;19914;-76
2022/06/25 01:43:22;;;;;;;;;;;29.60;48.50;;;;;;5016622;28;19914;-77
2022/06/25 01:45:47;;;;;;;;;;;29.60;48.50;;;;;;5015235;28;19921;-77
2022/06/25 01:48:13;;;;;;;;;;;29.60;48.50;;;;;;5015609;28;19910;-76
2022/06/25 01:50:38;;;;;;;;;;;29.50;48.50;;;;;;5014880;28;19910;-77
2022/06/25 01:53:04;;;;;;;;;;;29.50;48.50;;;;;;5016035;28;19955;-77
2022/06/25 01:55:29;;;;;;;;;;;29.60;48.60;;;;;;4998417;28;19916;-76
2022/06/25 01:57:55;;;;;;;;;;;29.50;48.60;;;;;;4998767;28;19916;-76
2022/06/25 02:00:21;;;;;;;;;;;29.50;48.60;;;;;;5014787;28;19909;-77
2022/06/25 02:02:47;;;;;;;;;;;29.50;48.60;;;;;;5015446;28;19909;-77
2022/06/25 02:05:13;;;;;;;;;;;29.40;48.60;;;;;;5014571;28;19948;-76
2022/06/25 02:07:38;;;;;;;;;;;29.40;48.60;;;;;;5015636;28;19956;-77
2022/06/25 02:10:04;;;;;;;;;;;29.50;48.70;;;;;;5015310;28;19909;-77
2022/06/25 02:12:30;;;;;;;;;;;29.40;48.60;;;;;;5016469;28;19909;-77
2022/06/25 02:14:55;;;;;;;;;;;29.40;48.60;;;;;;5015123;28;19963;-76
2022/06/25 02:17:20;;;;;;;;;;;29.50;48.70;;;;;;5014852;28;19910;-77
2022/06/25 02:19:46;;;;;;;;;;;29.50;48.60;;;;;;5015088;28;19937;-76
2022/06/25 02:22:14;;;;;;;;;;;29.40;48.60;;;;;;5014397;28;20332;-76
2022/06/25 02:24:43;;;;;;;;;;;29.40;48.60;;;;;;4998406;28;19920;-76
2022/06/25 02:27:09;;;;;;;;;;;29.40;48.60;;;;;;5014568;28;20324;-76
2022/06/25 02:29:34;;;;;;;;;;;29.40;48.60;;;;;;5014815;28;19920;-76
2022/06/25 02:32:00;;;;;;;;;;;29.40;48.60;;;;;;5014298;28;19916;-78
2022/06/25 02:34:25;;;;;;;;;;;29.50;48.70;;;;;;5014548;28;19923;-76
2022/06/25 02:36:51;;;;;;;;;;;29.50;48.80;;;;;;5014195;28;20357;-77
2022/06/25 02:39:16;;;;;;;;;;;29.40;48.70;;;;;;5015816;28;19932;-77
2022/06/25 02:41:42;;;;;;;;;;;29.30;48.60;;;;;;5014175;28;20262;-76
2022/06/25 02:44:07;;;;;;;;;;;29.30;48.70;;;;;;4997574;28;19910;-77
2022/06/25 02:46:33;;;;;;;;;;;29.50;48.80;;;;;;5015097;28;19913;-76
2022/06/25 02:48:58;;;;;;;;;;;29.40;48.60;;;;;;5013873;28;19916;-76
2022/06/25 02:51:24;;;;;;;;;;;29.40;48.70;;;;;;5013879;28;19916;-77
2022/06/25 02:53:49;;;;;;;;;;;29.40;48.60;;;;;;5013878;28;19910;-76
2022/06/25 02:58:59;;;;;;;;;;;29.30;48.60;;;;;;5014125;28;19940;-76
2022/06/25 03:01:26;;;;;;;;;;;29.30;48.70;;;;;;4997209;28;19909;-77
2022/06/25 03:03:53;;;;;;;;;;;29.30;48.80;;;;;;5013228;28;19932;-76
2022/06/25 03:06:18;;;;;;;;;;;29.30;48.80;;;;;;5013886;28;19909;-77
2022/06/25 03:08:44;;;;;;;;;;;29.30;48.80;;;;;;5013950;28;20285;-75
2022/06/25 03:11:10;;;;;;;;;;;29.30;48.80;;;;;;5014519;28;19917;-76
2022/06/25 03:13:36;;;;;;;;;;;29.30;48.80;;;;;;4997065;28;19976;-76
2022/06/25 03:16:05;;;;;;;;;;;29.30;48.70;;;;;;4996949;28;19917;-77
2022/06/25 03:18:31;;;;;;;;;;;29.20;48.70;;;;;;5013230;28;19909;-76
2022/06/25 03:20:56;;;;;;;;;;;29.30;48.80;;;;;;5013481;28;19964;-76
2022/06/25 03:23:22;;;;;;;;;;;29.20;48.70;;;;;;5014547;28;20370;-77
2022/06/25 03:25:48;;;;;;;;;;;29.30;48.80;;;;;;4996966;28;20067;-76
2022/06/25 03:28:13;;;;;;;;;;;29.20;48.80;;;;;;5014310;28;20377;-76
2022/06/25 03:30:39;;;;;;;;;;;29.30;48.90;;;;;;5014516;28;19910;-76
2022/06/25 03:33:04;;;;;;;;;;;29.30;48.80;;;;;;5013110;28;19988;-76
2022/06/25 03:35:30;;;;;;;;;;;29.30;48.80;;;;;;4996714;28;19916;-76
2022/06/25 03:37:55;;;;;;;;;;;29.20;48.80;;;;;;4996991;28;20373;-76
2022/06/25 03:40:21;;;;;;;;;;;29.20;48.80;;;;;;5013168;28;19955;-76
2022/06/25 03:42:46;;;;;;;;;;;29.20;48.70;;;;;;5014248;28;19916;-77
2022/06/25 03:45:12;;;;;;;;;;;29.20;48.70;;;;;;5014249;28;19960;-76
2022/06/25 03:47:37;;;;;;;;;;;29.10;48.70;;;;;;5013205;28;20028;-77
2022/06/25 03:50:03;;;;;;;;;;;29.20;48.70;;;;;;5012944;28;19910;-76
2022/06/25 03:52:28;;;;;;;;;;;29.20;48.70;;;;;;5012720;28;19914;-76
2022/06/25 03:54:54;;;;;;;;;;;29.20;48.70;;;;;;5012947;28;19910;-77
2022/06/25 03:57:19;;;;;;;;;;;29.20;48.80;;;;;;5012653;28;19909;-76
2022/06/25 03:59:45;;;;;;;;;;;29.20;48.70;;;;;;5013019;28;20371;-77
2022/06/25 04:02:10;;;;;;;;;;;29.20;48.70;;;;;;5012996;28;19917;-76
2022/06/25 04:04:35;;;;;;;;;;;29.20;48.70;;;;;;5025919;28;19967;-77
2022/06/25 04:07:01;;;;;;;;;;;29.20;48.70;;;;;;5016300;28;19909;-76
2022/06/25 04:09:26;;;;;;;;;;;29.20;48.70;;;;;;5033911;28;20353;-76
2022/06/25 04:11:52;;;;;;;;;;;29.20;48.70;;;;;;5021286;28;19913;-76
2022/06/25 04:14:17;;;;;;;;;;;29.20;48.70;;;;;;5022578;28;19916;-75
2022/06/25 04:16:43;;;;;;;;;;;29.20;48.80;;;;;;5022617;28;19919;-76
2022/06/25 04:19:08;;;;;;;;;;;29.10;48.70;;;;;;5022821;28;19909;-76
2022/06/25 04:21:34;;;;;;;;;;;29.10;48.80;;;;;;5005836;28;19913;-76
2022/06/25 04:23:59;;;;;;;;;;;29.10;48.80;;;;;;5022574;28;20452;-76
2022/06/25 04:26:25;;;;;;;;;;;29.20;48.80;;;;;;5022511;28;20288;-76
2022/06/25 04:29:05;;;;;;;;;;;29.10;48.80;;;;;;5040080;28;19917;-76
2022/06/25 04:31:31;;;;;;;;;;;29.10;48.80;;;;;;5024792;28;19909;-77
2022/06/25 04:33:57;;;;;;;;;;;29.10;48.80;;;;;;5022422;28;19909;-76
2022/06/25 04:36:22;;;;;;;;;;;29.10;48.80;;;;;;5006170;28;20395;-75
2022/06/25 04:38:48;;;;;;;;;;;29.30;49.00;;;;;;5022901;28;19917;-77
2022/06/25 04:41:14;;;;;;;;;;;29.10;48.80;;;;;;5022257;28;19909;-76
2022/06/25 04:43:40;;;;;;;;;;;29.10;48.80;;;;;;5022223;28;19956;-76
2022/06/25 04:46:05;;;;;;;;;;;29.10;48.80;;;;;;5005726;28;19952;-76
2022/06/25 04:48:30;;;;;;;;;;;29.10;48.80;;;;;;5005616;28;19909;-76
2022/06/25 04:50:56;;;;;;;;;;;29.10;48.70;;;;;;5022067;28;19913;-77
2022/06/25 04:53:21;;;;;;;;;;;29.10;48.70;;;;;;5005408;28;19913;-77
2022/06/25 04:55:47;;;;;;;;;;;29.10;48.70;;;;;;5022094;28;19916;-76
2022/06/25 04:58:14;;;;;;;;;;;29.10;48.70;;;;;;5005627;28;21951;-76
2022/06/25 05:00:40;;;;;;;;;;;29.10;48.70;;;;;;5022451;28;20000;-76
2022/06/25 05:03:06;;;;;;;;;;;29.20;48.80;;;;;;5022456;28;20320;-76
2022/06/25 05:05:31;;;;;;;;;;;29.10;48.70;;;;;;5005542;28;20284;-76
2022/06/25 05:07:56;;;;;;;;;;;29.10;48.70;;;;;;5022689;28;19913;-76
2022/06/25 05:10:22;;;;;;;;;;;29.10;48.70;;;;;;5005625;28;20254;-76
2022/06/25 05:15:31;;;;;;;;;;;29.10;48.80;;;;;;5024723;28;19925;-77
2022/06/25 05:17:57;;;;;;;;;;;29.10;48.70;;;;;;5022312;28;19913;-77
2022/06/25 05:20:22;;;;;;;;;;;29.10;48.70;;;;;;5021994;28;19910;-77
2022/06/25 05:22:48;;;;;;;;;;;29.10;48.70;;;;;;5002977;28;19914;-77
2022/06/25 05:25:13;;;;;;;;;;;29.10;48.80;;;;;;5002823;28;19920;-76
2022/06/25 05:27:39;;;;;;;;;;;29.00;48.70;;;;;;5018940;28;19909;-76
2022/06/25 05:30:05;;;;;;;;;;;29.10;48.80;;;;;;5018861;28;19984;-77
2022/06/25 05:32:30;;;;;;;;;;;29.10;48.80;;;;;;5002667;28;19909;-76
2022/06/25 05:34:57;;;;;;;;;;;29.10;48.80;;;;;;5037380;28;19909;-76
2022/06/25 05:37:23;;;;;;;;;;;29.00;48.80;;;;;;5019401;28;19913;-76
2022/06/25 05:39:48;;;;;;;;;;;29.10;48.80;;;;;;5018968;28;19917;-76
2022/06/25 05:42:14;;;;;;;;;;;29.10;48.70;;;;;;5018519;28;19955;-77
2022/06/25 05:44:39;;;;;;;;;;;29.10;48.70;;;;;;5018627;28;20296;-76
2022/06/25 05:47:05;;;;;;;;;;;29.10;48.80;;;;;;5018490;28;20355;-77
2022/06/25 05:49:30;;;;;;;;;;;29.10;48.80;;;;;;5036464;28;19909;-76
2022/06/25 05:51:56;;;;;;;;;;;29.10;48.80;;;;;;5018273;28;19909;-77
2022/06/25 05:54:21;;;;;;;;;;;29.00;48.70;;;;;;5018080;28;20377;-76
2022/06/25 05:56:47;;;;;;;;;;;29.00;48.70;;;;;;5001958;28;20000;-76
2022/06/25 05:59:12;;;;;;;;;;;29.20;48.80;;;;;;5018169;28;19913;-76
2022/06/25 06:01:38;;;;;;;;;;;29.10;48.80;;;;;;5018155;28;19959;-76
2022/06/25 06:04:04;;;;;;;;;;;29.00;48.70;;;;;;5017762;28;19918;-77
2022/06/25 06:06:30;;;;;;;;;;;29.00;48.70;;;;;;5018037;28;19917;-76
2022/06/25 06:08:55;;;;;;;;;;;29.00;48.80;;;;;;5018446;28;20438;-76
2022/06/25 06:11:21;;;;;;;;;;;29.10;48.70;;;;;;5018346;28;19924;-77
2022/06/25 06:13:46;;;;;;;;;;;29.00;48.70;;;;;;5035677;28;19941;-76
2022/06/25 06:16:12;;;;;;;;;;;29.00;48.70;;;;;;5017943;28;19947;-76
2022/06/25 06:18:37;;;;;;;;;;;29.00;48.70;;;;;;5017643;28;19964;-75
2022/06/25 06:21:03;;;;;;;;;;;29.10;48.70;;;;;;5018105;28;19909;-76
2022/06/25 06:23:28;;;;;;;;;;;29.10;48.80;;;;;;5017575;28;20381;-77
2022/06/25 06:25:54;;;;;;;;;;;29.00;48.70;;;;;;5017457;28;19913;-76
2022/06/25 06:28:19;;;;;;;;;;;29.00;48.70;;;;;;5035602;28;19959;-77
2022/06/25 06:30:46;;;;;;;;;;;29.00;48.70;;;;;;5017648;28;19958;-77
2022/06/25 06:33:12;;;;;;;;;;;29.10;48.80;;;;;;5017246;28;19909;-77
2022/06/25 06:35:37;;;;;;;;;;;29.00;48.80;;;;;;5001044;28;19916;-76
2022/06/25 06:38:03;;;;;;;;;;;29.00;48.70;;;;;;5001432;28;19909;-77
2022/06/25 06:40:28;;;;;;;;;;;29.10;48.70;;;;;;5001013;28;19913;-78
2022/06/25 06:42:55;;;;;;;;;;;29.10;48.70;;;;;;5017486;28;19916;-76
2022/06/25 06:45:21;;;;;;;;;;;29.10;48.70;;;;;;5001010;28;19913;-76
2022/06/25 06:47:47;;;;;;;;;;;29.00;48.70;;;;;;5017233;28;19910;-76
2022/06/25 06:50:12;;;;;;;;;;;29.00;48.70;;;;;;5017028;28;19919;-76
2022/06/25 06:52:38;;;;;;;;;;;29.10;48.70;;;;;;5017147;28;19961;-76
2022/06/25 06:55:04;;;;;;;;;;;29.00;48.70;;;;;;5017251;28;20440;-75
2022/06/25 06:57:30;;;;;;;;;;;29.00;48.70;;;;;;5017420;28;19952;-76
2022/06/25 06:59:58;;;;;;;;;;;29.10;48.80;;;;;;5017187;28;19909;-77
2022/06/25 07:02:25;;;;;;;;;;;29.10;48.80;;;;;;5017547;28;20004;-76
2022/06/25 07:04:52;;;;;;;;;;;29.10;48.70;;;;;;5034419;28;19922;-77
2022/06/25 07:07:17;;;;;;;;;;;29.00;48.70;;;;;;5016976;28;19909;-76
2022/06/25 07:09:43;;;;;;;;;;;29.00;48.70;;;;;;5034669;28;19913;-77
2022/06/25 07:12:08;;;;;;;;;;;29.00;48.70;;;;;;5016908;28;19932;-77
2022/06/25 07:14:34;;;;;;;;;;;29.00;49.40;;;;;;5000486;28;19959;-77
2022/06/25 07:16:59;;;;;;;;;;;29.00;48.70;;;;;;5017049;28;20308;-76
2022/06/25 07:19:25;;;;;;;;;;;29.00;48.70;;;;;;5034884;28;19916;-77
2022/06/25 07:21:52;;;;;;;;;;;29.00;48.70;;;;;;5016626;28;19916;-76
2022/06/25 07:24:17;;;;;;;;;;;29.10;48.70;;;;;;5034331;28;19971;-76
2022/06/25 07:26:43;;;;;;;;;;;29.00;48.70;;;;;;5016683;28;19913;-76
2022/06/25 07:29:08;;;;;;;;;;;29.10;48.70;;;;;;5016538;28;19917;-77
2022/06/25 07:31:34;;;;;;;;;;;29.10;48.70;;;;;;5000173;28;19909;-77
2022/06/25 07:34:00;;;;;;;;;;;29.10;48.60;;;;;;5016810;28;19920;-77
2022/06/25 07:36:25;;;;;;;;;;;29.10;48.70;;;;;;5016355;28;19913;-76
2022/06/25 07:38:50;;;;;;;;;;;29.10;48.60;;;;;;5016611;28;19909;-77
2022/06/25 07:41:16;;;;;;;;;;;29.10;48.70;;;;;;4999866;28;19964;-77
2022/06/25 07:43:42;;;;;;;;;;;29.10;48.70;;;;;;5034276;28;19962;-76
2022/06/25 07:46:07;;;;;;;;;;;29.10;48.80;;;;;;5015543;28;19920;-77
2022/06/25 07:48:34;;;;;;;;;;;29.10;48.90;;;;;;5000147;28;19909;-77
2022/06/25 07:53:43;;;;;;;;;;;29.10;48.80;;;;;;5019093;28;20391;-76
2022/06/25 07:56:09;;;;;;;;;;;29.10;48.70;;;;;;5016030;28;19913;-76
2022/06/25 07:58:34;;;;;;;;;;;29.10;48.70;;;;;;5016231;28;19916;-77
2022/06/25 08:01:00;;;;;;;;;;;29.10;48.60;;;;;;5033894;28;19909;-76
2022/06/25 08:03:25;;;;;;;;;;;29.20;48.70;;;;;;5015961;28;19915;-77
2022/06/25 08:05:51;;;;;;;;;;;29.20;48.60;;;;;;4999650;28;19959;-76
2022/06/25 08:08:16;;;;;;;;;;;29.20;48.60;;;;;;5016134;28;20375;-76
2022/06/25 08:10:42;;;;;;;;;;;29.20;48.50;;;;;;5015824;28;19913;-77
2022/06/25 08:13:07;;;;;;;;;;;29.20;48.60;;;;;;5016116;28;20403;-77
2022/06/25 08:15:33;;;;;;;;;;;29.20;48.50;;;;;;5016132;28;19909;-76
2022/06/25 08:17:58;;;;;;;;;;;29.20;48.50;;;;;;4999429;28;19971;-76
2022/06/25 08:20:24;;;;;;;;;;;29.20;48.50;;;;;;5033671;28;19916;-77
2022/06/25 08:22:49;;;;;;;;;;;29.20;48.50;;;;;;5033445;28;19916;-77
2022/06/25 08:25:15;;;;;;;;;;;29.20;48.50;;;;;;5033355;28;20276;-76
2022/06/25 08:27:45;;;;;;;;;;;29.20;48.60;;;;;;4999458;28;19964;-76
2022/06/25 08:30:10;;;;;;;;;;;29.20;48.60;;;;;;5016432;28;19931;-77
2022/06/25 08:32:36;;;;;;;;;;;29.20;48.60;;;;;;5016085;28;19909;-77
2022/06/25 08:35:01;;;;;;;;;;;29.20;48.60;;;;;;5015741;28;19909;-76
2022/06/25 08:37:27;;;;;;;;;;;29.20;48.60;;;;;;5033537;28;19993;-77
2022/06/25 08:39:52;;;;;;;;;;;29.30;48.70;;;;;;4999600;28;19917;-76
2022/06/25 08:42:18;;;;;;;;;;;29.20;48.60;;;;;;5015526;28;19917;-75
2022/06/25 08:44:43;;;;;;;;;;;29.20;48.70;;;;;;4999241;28;20395;-76
2022/06/25 08:47:09;;;;;;;;;;;29.20;48.70;;;;;;5033253;28;19983;-77
2022/06/25 08:49:35;;;;;;;;;;;29.30;48.60;;;;;;5015705;28;19948;-76
2022/06/25 08:52:01;;;;;;;;;;;29.30;48.50;;;;;;5015491;28;19916;-76
2022/06/25 08:54:26;;;;;;;;;;;29.30;48.50;;;;;;5033591;28;19909;-77
2022/06/25 08:56:52;;;;;;;;;;;29.30;48.50;;;;;;5016696;28;20114;-76
2022/06/25 08:59:17;;;;;;;;;;;29.30;48.50;;;;;;5019791;28;19910;-76
2022/06/25 09:01:43;;;;;;;;;;;29.20;48.40;;;;;;5037759;28;19913;-77
2022/06/25 09:04:09;;;;;;;;;;;29.30;48.50;;;;;;5002625;28;19924;-76
2022/06/25 09:06:34;;;;;;;;;;;29.30;48.50;;;;;;5019465;28;19910;-76
2022/06/25 09:09:26;;;;;;;;;;;29.30;48.50;;;;;;5037388;28;20349;-76
2022/06/25 09:11:52;;;;;;;;;;;29.30;48.60;;;;;;5033894;28;19997;-75
2022/06/25 09:14:19;;;;;;;;;;;29.20;48.60;;;;;;5019115;28;20351;-76
2022/06/25 09:16:48;;;;;;;;;;;29.30;48.60;;;;;;5018880;28;19992;-77
2022/06/25 09:19:20;;;;;;;;;;;29.30;48.50;;;;;;5019255;28;19920;-76
2022/06/25 09:21:45;;;;;;;;;;;29.40;48.60;;;;;;5019122;28;19909;-76
2022/06/25 09:24:11;;;;;;;;;;;29.40;48.60;;;;;;5036566;28;19959;-76
2022/06/25 09:26:39;;;;;;;;;;;29.40;48.50;;;;;;5036872;28;19909;-75
2022/06/25 09:29:04;;;;;;;;;;;29.40;48.40;;;;;;5019061;28;19909;-76
2022/06/25 09:31:33;;;;;;;;;;;29.40;48.40;;;;;;5036341;28;19913;-76
2022/06/25 09:34:02;;;;;;;;;;;29.40;48.50;;;;;;5001994;28;19978;-77
2022/06/25 09:36:28;;;;;;;;;;;29.40;48.60;;;;;;5018270;28;20316;-77
2022/06/25 09:38:53;;;;;;;;;;;29.40;48.60;;;;;;5036689;28;20060;-76
2022/06/25 09:41:19;;;;;;;;;;;29.30;48.60;;;;;;5018550;28;20312;-76
2022/06/25 09:43:47;;;;;;;;;;;29.40;48.70;;;;;;5018693;28;19924;-76
2022/06/25 09:46:13;;;;;;;;;;;29.40;48.50;;;;;;5019171;28;20351;-76
2022/06/25 09:48:38;;;;;;;;;;;29.50;48.50;;;;;;5001943;28;19913;-76
2022/06/25 09:51:11;;;;;;;;;;;29.50;48.40;;;;;;5001764;28;19910;-77
2022/06/25 09:53:55;;;;;;;;;;;29.40;48.40;;;;;;5018622;28;19909;-76
2022/06/25 09:56:21;;;;;;;;;;;29.50;48.40;;;;;;5018135;28;19909;-77
2022/06/25 09:58:47;;;;;;;;;;;29.50;48.40;;;;;;5001957;28;19959;-77
2022/06/25 10:01:16;;;;;;;;;;;29.60;48.40;;;;;;5018005;28;19924;-77
2022/06/25 10:03:42;;;;;;;;;;;29.50;48.40;;;;;;5001745;28;20254;-77
2022/06/25 10:06:08;;;;;;;;;;;29.50;48.50;;;;;;5035849;28;19917;-77
2022/06/25 10:08:33;;;;;;;;;;;29.50;48.50;;;;;;5017823;28;19909;-77
2022/06/25 10:10:58;;;;;;;;;;;29.50;48.50;;;;;;5018359;28;19916;-76
2022/06/25 10:13:24;;;;;;;;;;;29.40;48.40;;;;;;5018571;28;19916;-77
2022/06/25 10:15:50;;;;;;;;;;;29.50;48.50;;;;;;5018261;28;19909;-75
2022/06/25 10:18:15;;;;;;;;;;;29.50;48.60;;;;;;5017960;28;19955;-77
2022/06/25 10:20:42;;;;;;;;;;;29.40;48.40;;;;;;5017968;28;19910;-76
2022/06/25 10:23:08;;;;;;;;;;;29.50;48.40;;;;;;5018197;28;20254;-76
2022/06/25 10:25:33;;;;;;;;;;;29.50;48.50;;;;;;5035366;28;19944;-77
2022/06/25 10:28:06;;;;;;;;;;;29.50;48.40;;;;;;5017813;28;20364;-77
2022/06/25 10:30:45;;;;;;;;;;;29.60;48.30;;;;;;5001455;28;19916;-77
2022/06/25 10:33:11;;;;;;;;;;;29.60;48.30;;;;;;5035317;28;19916;-76
2022/06/25 10:35:36;;;;;;;;;;;29.60;48.30;;;;;;5017890;28;19913;-76
2022/06/25 10:38:03;;;;;;;;;;;29.60;48.30;;;;;;5001841;28;19971;-76
2022/06/25 10:40:30;;;;;;;;;;;29.60;48.20;;;;;;5017383;28;19917;-76
2022/06/25 10:43:01;;;;;;;;;;;29.70;48.20;;;;;;5017751;28;19909;-76
2022/06/25 10:45:30;;;;;;;;;;;29.70;48.30;;;;;;5002015;28;19913;-76
2022/06/25 10:47:59;;;;;;;;;;;29.60;48.10;;;;;;5017501;28;19916;-76
2022/06/25 10:50:27;;;;;;;;;;;29.60;48.20;;;;;;5017980;28;19909;-76
2022/06/25 10:53:02;;;;;;;;;;;29.70;48.10;;;;;;5017368;28;19913;-77
2022/06/25 10:55:28;;;;;;;;;;;29.70;48.20;;;;;;5034983;28;19909;-76
2022/06/25 10:58:10;;;;;;;;;;;29.70;48.20;;;;;;5017980;28;19916;-77
2022/06/25 11:00:46;;;;;;;;;;;29.70;48.30;;;;;;5017032;28;19909;-76
2022/06/25 11:03:11;;;;;;;;;;;29.70;48.10;;;;;;5017123;28;20420;-76
2022/06/25 11:05:41;;;;;;;;;;;29.70;48.20;;;;;;5000762;28;20016;-76
2022/06/25 11:08:06;;;;;;;;;;;29.70;48.00;;;;;;5017467;28;20288;-77
2022/06/25 11:10:35;;;;;;;;;;;29.70;48.10;;;;;;5000368;28;19909;-77
2022/06/25 11:13:01;;;;;;;;;;;29.80;48.00;;;;;;5016939;28;19916;-76
2022/06/25 11:15:27;;;;;;;;;;;29.80;48.60;;;;;;5000520;28;19909;-76
2022/06/25 11:17:52;;;;;;;;;;;29.80;47.90;;;;;;5016581;28;19909;-76
2022/06/25 11:20:17;;;;;;;;;;;29.80;47.80;;;;;;5033511;28;19967;-77
2022/06/25 11:22:46;;;;;;;;;;;29.80;47.70;;;;;;5016873;28;19914;-77
2022/06/25 11:30:40;;;;;;;;;;;29.80;47.70;;;;;;5019340;28;19943;-76
2022/06/25 11:33:08;;;;;;;;;;;29.90;47.90;;;;;;5000038;28;19913;-76
2022/06/25 11:35:37;;;;;;;;;;;29.80;47.90;;;;;;5000660;28;19913;-76
2022/06/25 11:38:02;;;;;;;;;;;29.90;48.00;;;;;;5016685;28;19909;-75
2022/06/25 11:40:28;;;;;;;;;;;29.80;47.90;;;;;;5000703;28;20332;-76
2022/06/25 11:43:04;;;;;;;;;;;29.90;47.90;;;;;;5000200;28;19910;-76
2022/06/25 11:45:31;;;;;;;;;;;29.90;48.00;;;;;;5016725;28;20421;-76
2022/06/25 11:47:56;;;;;;;;;;;29.90;48.00;;;;;;5016433;28;19916;-77
2022/06/25 11:50:22;;;;;;;;;;;30.00;47.80;;;;;;5016164;28;20373;-76
2022/06/25 11:52:47;;;;;;;;;;;29.90;47.70;;;;;;5016197;28;20340;-76
2022/06/25 11:55:13;;;;;;;;;;;30.00;47.70;;;;;;5016124;28;19967;-76
2022/06/25 11:57:39;;;;;;;;;;;30.10;47.80;;;;;;5033800;28;19909;-76
2022/06/25 12:00:05;;;;;;;;;;;30.00;47.80;;;;;;5033823;28;19910;-77
2022/06/25 12:02:31;;;;;;;;;;;30.00;47.90;;;;;;5015940;28;19920;-76
2022/06/25 12:04:57;;;;;;;;;;;30.00;47.90;;;;;;4999263;28;20376;-77
2022/06/25 12:07:30;;;;;;;;;;;30.00;47.90;;;;;;5016099;28;19913;-77
2022/06/25 12:10:00;;;;;;;;;;;30.00;48.00;;;;;;5000203;28;19917;-76
2022/06/25 12:12:25;;;;;;;;;;;30.10;47.80;;;;;;4999905;28;20379;-77
2022/06/25 12:14:51;;;;;;;;;;;30.00;48.40;;;;;;5016187;28;19909;-76
2022/06/25 12:17:16;;;;;;;;;;;30.20;47.70;;;;;;5033958;28;19909;-76
2022/06/25 12:19:52;;;;;;;;;;;30.20;47.70;;;;;;5016339;28;20276;-76
2022/06/25 12:22:21;;;;;;;;;;;30.20;47.50;;;;;;5016731;28;20280;-76
2022/06/25 12:24:46;;;;;;;;;;;30.20;47.40;;;;;;5000528;28;19925;-76
2022/06/25 12:27:12;;;;;;;;;;;30.20;47.40;;;;;;4999603;28;20388;-76
2022/06/25 12:29:37;;;;;;;;;;;30.30;48.10;;;;;;5033716;28;19913;-77
2022/06/25 12:32:03;;;;;;;;;;;30.30;47.40;;;;;;5034823;28;19920;-76
2022/06/25 12:34:28;;;;;;;;;;;30.30;47.30;;;;;;5037892;28;20356;-76
2022/06/25 12:36:54;;;;;;;;;;;30.30;47.30;;;;;;5037751;28;19999;-76
2022/06/25 12:39:33;;;;;;;;;;;30.30;47.30;;;;;;5020055;28;19917;-76
2022/06/25 12:42:03;;;;;;;;;;;30.40;47.40;;;;;;5003497;28;20000;-77
2022/06/25 12:44:32;;;;;;;;;;;30.40;47.30;;;;;;5019725;28;19938;-76
2022/06/25 12:46:58;;;;;;;;;;;30.40;47.20;;;;;;5020150;28;20323;-77
2022/06/25 12:49:24;;;;;;;;;;;30.40;47.20;;;;;;5020131;28;19915;-76
2022/06/25 12:51:49;;;;;;;;;;;30.50;47.20;;;;;;5020117;28;19909;-76
2022/06/25 12:54:15;;;;;;;;;;;30.50;47.20;;;;;;5020085;28;19956;-76
2022/06/25 12:56:40;;;;;;;;;;;30.50;47.30;;;;;;5019859;28;19956;-77
2022/06/25 12:59:06;;;;;;;;;;;30.60;47.30;;;;;;5037817;28;19909;-76
2022/06/25 13:01:33;;;;;;;;;;;30.60;47.30;;;;;;5037902;28;20007;-76
2022/06/25 13:04:00;;;;;;;;;;;30.50;47.20;;;;;;5019657;28;19953;-77
2022/06/25 13:06:25;;;;;;;;;;;30.60;47.30;;;;;;5019978;28;19955;-76
2022/06/25 13:08:51;;;;;;;;;;;30.60;47.30;;;;;;5020127;28;19909;-76
2022/06/25 13:11:20;;;;;;;;;;;30.60;47.30;;;;;;5002932;28;20699;-76
2022/06/25 13:13:46;;;;;;;;;;;30.60;47.30;;;;;;5019601;28;20372;-76
2022/06/25 13:16:12;;;;;;;;;;;30.60;47.10;;;;;;5036895;28;19910;-76
2022/06/25 13:18:38;;;;;;;;;;;30.60;47.10;;;;;;5019216;28;19913;-76
2022/06/25 13:21:03;;;;;;;;;;;30.60;46.90;;;;;;5037250;28;19913;-76
2022/06/25 13:23:29;;;;;;;;;;;30.60;46.90;;;;;;5037044;28;19916;-76
2022/06/25 13:25:54;;;;;;;;;;;30.60;46.80;;;;;;5018598;28;19913;-76
2022/06/25 13:28:20;;;;;;;;;;;30.70;47.00;;;;;;5002941;28;20396;-76
2022/06/25 13:30:45;;;;;;;;;;;30.70;46.90;;;;;;5002906;28;19955;-77
2022/06/25 13:33:10;;;;;;;;;;;30.70;47.00;;;;;;5036846;28;19959;-76
2022/06/25 13:35:36;;;;;;;;;;;30.70;47.10;;;;;;5018964;28;19959;-76
2022/06/25 13:38:01;;;;;;;;;;;30.60;47.10;;;;;;5019235;28;19916;-76
2022/06/25 13:40:27;;;;;;;;;;;30.70;47.20;;;;;;5018875;28;20004;-77
2022/06/25 13:42:53;;;;;;;;;;;30.70;47.20;;;;;;5018789;28;19921;-76
2022/06/25 13:45:18;;;;;;;;;;;30.80;47.00;;;;;;5036076;28;19913;-76
2022/06/25 13:47:44;;;;;;;;;;;30.80;47.00;;;;;;5018946;28;19909;-76
2022/06/25 13:50:09;;;;;;;;;;;30.80;47.00;;;;;;5036398;28;19916;-76
2022/06/25 13:52:35;;;;;;;;;;;30.70;47.10;;;;;;5002212;28;19909;-76
2022/06/25 13:55:00;;;;;;;;;;;30.80;47.10;;;;;;5018425;28;19920;-76
2022/06/25 13:57:26;;;;;;;;;;;30.70;47.20;;;;;;5002227;28;19915;-77
2022/06/25 13:59:51;;;;;;;;;;;30.80;47.20;;;;;;5018764;28;19916;-76
2022/06/25 14:02:17;;;;;;;;;;;30.70;47.20;;;;;;5035774;28;19913;-76
2022/06/25 14:04:42;;;;;;;;;;;30.70;47.20;;;;;;5018043;28;20444;-76
2022/06/25 14:07:08;;;;;;;;;;;30.70;47.20;;;;;;5018591;28;19932;-76
2022/06/25 14:09:33;;;;;;;;;;;30.70;47.40;;;;;;5018610;28;19975;-76
2022/06/25 14:11:59;;;;;;;;;;;30.70;47.40;;;;;;5001917;28;20043;-76
2022/06/25 14:14:26;;;;;;;;;;;30.60;47.40;;;;;;5001889;28;19910;-75
2022/06/25 14:16:52;;;;;;;;;;;30.60;47.40;;;;;;5018157;28;19910;-76
2022/06/25 14:19:17;;;;;;;;;;;30.70;47.40;;;;;;5035770;28;19909;-76
2022/06/25 14:21:42;;;;;;;;;;;30.70;47.40;;;;;;5018172;28;19913;-76
2022/06/25 14:24:09;;;;;;;;;;;30.60;47.40;;;;;;5017855;28;20043;-76